Hayfield, Middle Canyon, Santa Catalina Island Weather observations

Data are for 10 minute period ending at time listed.
 Day   Time   Solar   Ave.   Ave.  Ave.  Vector    Max.   Stn.    Total
  of    of     Rad.   Air    Rel.  Wind   Wind     Wind   Baro.  Precip. 
Year   Day            Temp.  Hum.  Speed  Dir.     Gust   Pres.          
2014   (PST)   W/m2    F      %     mph   deg.      mph    mb.     in.   
-------------------------------------------------------------------------
 241   13:40  588.9    76   71.1     6    278.3    11.6    999.0   0.00
 241   13:50  583.5    76   72.0     7    278.9    11.6    999.0   0.00
 241   14:00  577.8    76   72.4     7    277.3    12.8    999.0   0.00
 241   14:10  570.1    75   74.7     7    292.9    12.2    999.0   0.00
 241   14:20  561.5    74   74.9     8    301.2    12.2    999.0   0.00
 241   14:30  551.2    74   75.6     7    302.8    11.6    999.0   0.00
 241   14:40  540.9    74   75.0     7    294.5    11.6    999.0   0.00
 241   14:50  528.9    72   78.0     7    301.9    12.2    999.0   0.00
 241   15:00  516.2    73   77.5     6    295.7    12.2    999.0   0.00
 241   15:10  502.0    72   78.8     7    305.3    12.2    999.0   0.00
 241   15:20  487.3    72   78.5     7    292.4    12.8    999.0   0.00
 241   15:30  472.1    72   79.2     6    289.5    11.1    999.0   0.00
 241   15:40  455.1    71   79.7     6    289.7    11.6    999.0   0.00
 241   15:50  437.7    71   80.4     6    294.8    12.8    999.0   0.00
 241   16:00  419.5    70   80.6     6    294.9    10.0    999.0   0.00
 241   16:10  400.5    70   80.7     6    287.2    11.1    999.0   0.00
 241   16:20  380.9    71   80.6     6    282.4    10.5    999.0   0.00
 241   16:30  360.6    71   80.7     5    291.2    11.1    999.0   0.00
 241   16:40  340.3    71   80.5     5    290.1     9.4    999.0   0.00
 241   16:50  318.1    70   80.9     5    291.0     8.8    999.0   0.00
 241   17:00  295.8    70   81.6     5    289.3     8.8    999.0   0.00
 241   17:10  273.7    70   81.9     5    279.5     8.8    999.0   0.00
 241   17:20  251.5    70   82.8     5    284.9     9.4    999.0   0.00
 241   17:30  229.8    70   82.5     4    283.8     8.3    999.0   0.00
 241   17:40  207.4    70   82.0     4    274.1     8.3    999.0   0.00
 241   17:50  185.5    70   83.2     5    279.7     8.3    999.0   0.00
 241   18:00  163.0    70   84.4     4    273.9     6.6    999.0   0.00
 241   18:10  142.2    70   84.5     3    287.4     6.0    999.0   0.00
 241   18:20  121.6    70   83.6     2    269.6     4.4    999.0   0.00
 241   18:30   99.0    70   81.8     3    303.1     5.5    999.0   0.00
 241   18:40   70.3    70   84.0     4    299.3     8.3    999.0   0.00
 241   18:50   50.1    68   87.2     4    295.2     7.2    999.0   0.00
 241   19:00   14.4    67   90.0     3    276.8     5.5    999.0   0.00
 241   19:10    6.6    66   92.5     3    268.7     7.2    999.0   0.00
 241   19:20    3.6    65   94.4     2    254.6     4.4    999.0   0.00
 241   19:30    1.3    65   95.8     3    286.8     7.2    999.0   0.00
 241   19:40    0.1    64   96.7     4    293.8     7.7    999.0   0.00
 241   19:50    0.0    64   97.4     3    303.5     7.7    999.0   0.00
 241   20:00    0.0    64   97.6     2    265.5     5.5    999.0   0.00
 241   20:10    0.0    64   97.9     2    276.8     7.7    999.0   0.00
 241   20:20    0.0    63   98.3     2    286.7     4.4    999.0   0.00
 241   20:30    0.0    63   98.8     2    270.5     6.0    999.0   0.00
 241   20:40    0.0    63   99.1     2    277.2     6.0    999.0   0.00
 241   20:50    0.0    62   99.4     2    302.6     4.9    999.0   0.00
 241   21:00    0.0    62   99.6     1    307.6     3.2    999.0   0.00
 241   21:10    0.0    61   99.6     0      0.0     0.0    999.0   0.00
 241   21:20    0.0    60   99.9     0     28.4     2.1    999.0   0.00
 241   21:30    0.0    60  100.0     1     40.1     2.1    999.0   0.00
 241   21:40    0.0    59  100.0     0     41.2     2.1    999.0   0.00
 241   21:50    0.0    58  100.0     1     69.6     2.1    999.0   0.00
 241   22:00    0.0    58  100.0     1     99.5     2.7    999.0   0.00
 241   22:10    0.0    58  100.0     0      0.0     0.0    999.0   0.00
 241   22:20    0.0    58  100.0     0    103.4     1.6    999.0   0.00
 241   22:30    0.0    58  100.0     0      0.0     0.0    999.0   0.00
 241   22:40    0.0    59  100.0     1    100.7     4.4    999.0   0.00
 241   22:50    0.0    60  100.0     3     84.4     4.9    999.0   0.00
 241   23:00    0.0    59  100.0     3     82.0     4.9    999.0   0.00
 241   23:10    0.0    59  100.0     2     80.4     4.4    999.0   0.00
 241   23:20    0.0    59  100.0     2     74.1     3.8    999.0   0.00
 241   23:30    0.0    59  100.0     2     75.8     4.4    999.0   0.00
 241   23:40    0.0    59  100.0     1     83.8     2.7    999.0   0.00
 241   23:50    0.0    59  100.0     1     69.8     2.1    999.0   0.00
 242    0:00    0.0    58  100.0     2     63.1     4.4    999.0   0.00
 242    0:10    0.0    58  100.0     3     68.6     4.4    999.0   0.00
 242    0:20    0.0    57  100.0     3     78.6     4.9    999.0   0.00
 242    0:30    0.0    56  100.0     2     73.3     4.9    999.0   0.00
 242    0:40    0.0    56  100.0     4     69.5     6.0    999.0   0.00
 242    0:50    0.0    55  100.0     4     66.1     6.6    999.0   0.00
 242    1:00    0.0    55  100.0     3     69.7     4.9    999.0   0.00
 242    1:10    0.0    55  100.0     3     66.8     5.5    999.0   0.00
 242    1:20    0.0    54  100.0     2     84.2     4.9    999.0   0.00
 242    1:30    0.0    53  100.0     1     82.5     3.8    999.0   0.00
 242    1:40    0.0    53  100.0     1    107.8     2.7    999.0   0.00
 242    1:50    0.0    52  100.0     1     89.0     2.7    999.0   0.00
 242    2:00    0.0    52  100.0     0    121.6     2.7    999.0   0.00
 242    2:10    0.0    51  100.0     0      0.0     0.0    999.0   0.00
 242    2:20    0.0    51  100.0     1     93.4     2.7    999.0   0.00
 242    2:30    0.0    51  100.0     2     90.4     4.4    999.0   0.00
 242    2:40    0.0    51  100.0     2     97.2     4.9    999.0   0.00
 242    2:50    0.0    50  100.0     1    113.2     3.8    999.0   0.00
 242    3:00    0.0    50  100.0     1     99.9     3.8    999.0   0.00
 242    3:10    0.0    50  100.0     1     88.8     3.8    999.0   0.00
 242    3:20    0.0    49  100.0     0    122.2     1.6    999.0   0.00
 242    3:30    0.0    49  100.0     0    114.1     2.1    999.0   0.00
 242    3:40    0.0    48  100.0     0      0.0     0.0    999.0   0.00
 242    3:50    0.0    48  100.0     0      0.0     0.0    999.0   0.00
 242    4:00    0.0    48  100.0     0     58.6     2.1    999.0   0.00
 242    4:10    0.0    47  100.0     0      0.0     0.0    999.0   0.00
 242    4:20    0.0    48  100.0     0     72.6     2.7    999.0   0.00
 242    4:30    0.0    48  100.0     0     72.7     2.7    999.0   0.00
 242    4:40    0.0    49  100.0     0    112.5     2.1    999.0   0.00
 242    4:50    0.0    50  100.0     0      0.0     0.0    999.0   0.00
 242    5:00    0.0    50  100.0     0     72.2     1.6    999.0   0.00
 242    5:10    0.0    50  100.0     0    141.0     1.6    999.0   0.00
 242    5:20    0.0    51  100.0     0    135.6     2.1    999.0   0.00
 242    5:30    0.0    51  100.0     0     73.3     1.6    999.0   0.00
 242    5:40    0.0    51  100.0     0     35.8     1.6    999.0   0.00
 242    5:50    0.0    50  100.0     0    142.4     1.6    999.0   0.00
 242    6:00    0.0    50  100.0     0    144.1     1.6    999.0   0.00
 242    6:10    0.2    50  100.0     0      0.0     0.0    999.0   0.00
 242    6:20    0.8    49  100.0     1     55.9     2.7    999.0   0.00
 242    6:30    2.9    50  100.0     1    108.9     3.8    999.0   0.00
 242    6:40    5.8    50  100.0     1    115.9     3.2    999.0   0.00
 242    6:50    9.2    50  100.0     0    113.9     2.1    999.0   0.00
 242    7:00   16.0    50  100.0     0     92.6     2.7    999.0   0.00
 242    7:10   24.8    51  100.0     2    129.5     4.4    999.0   0.00
 242    7:20   34.1    52  100.0     2     94.4     4.4    999.0   0.00
 242    7:30   48.9    53  100.0     1    133.1     2.7    999.0   0.00
 242    7:40  112.7    54  100.0     0    145.8     1.6    999.0   0.00
 242    7:50  138.0    55  100.0     0    159.2     1.0    999.0   0.00
 242    8:00  159.5    56  100.0     0    173.6     1.6    999.0   0.00
 242    8:10  180.8    57  100.0     0    267.5     1.6    999.0   0.00
 242    8:20  202.8    58  100.0     0    196.6     1.6    999.0   0.00
 242    8:30  225.6    60  100.0     0    328.3     2.7    999.0   0.00
 242    8:40  247.8    61  100.0     2    298.4     4.9    999.0   0.00
 242    8:50  269.8    64   99.0     3    285.7     7.2    999.0   0.00
 242    9:00  290.4    67   94.4     5    290.6     8.3    999.0   0.00
 242    9:10  310.5    68   91.4     5    291.7     8.3    999.0   0.00
 242    9:20  329.7    69   88.8     4    296.0     6.6    999.0   0.00
 242    9:30  349.2    71   85.5     4    291.4     8.3    999.0   0.00
 242    9:40  368.4    72   82.9     3    294.6     6.6    999.0   0.00
 242    9:50  387.5    74   79.2     3    273.8     6.0    999.0   0.00
 242   10:00  405.7    75   75.0     3    287.0     6.0    999.0   0.00
 242   10:10  423.8    76   73.4     5    294.2    10.0    999.0   0.00
 242   10:20  440.4    75   76.1     6    288.3    10.0    999.0   0.00
 242   10:30  456.5    75   75.6     5    269.0     9.4    999.0   0.00
 242   10:40  472.1    76   74.7     5    291.2     8.3    999.0   0.00
 242   10:50  486.5    76   73.8     5    279.3    10.0    999.0   0.00
 242   11:00  499.5    76   73.6     6    280.4    11.6    999.0   0.00
 242   11:10  512.2    76   74.9     5    281.4    10.0    999.0   0.00
 242   11:20  523.8    76   73.6     6    275.8    10.5    999.0   0.00
 242   11:30  533.5    76   73.9     5    283.4     8.3    999.0   0.00
 242   11:40  543.8    77   72.2     5    279.3    10.0    999.0   0.00
 242   11:50  552.8    77   71.5     6    278.8     9.4    999.0   0.00
 242   12:00  560.4    78   71.5     6    284.0    10.5    999.0   0.00
 242   12:10  566.4    78   70.5     5    285.1     9.4    999.0   0.00
 242   12:20  572.9    78   69.4     5    289.5     9.4    999.0   0.00
 242   12:30  577.2    80   65.8     5    291.5     8.8    999.0   0.00
 242   12:40  580.6    81   62.8     6    294.6     9.4    999.0   0.00
 242   12:50  582.5    81   61.9     6    291.5    10.0    999.0   0.00
 242   13:00  583.1    81   59.1     6    299.9     9.4    999.0   0.00
 242   13:10  583.1    82   58.5     7    286.8    11.6    999.0   0.00
 242   13:20  580.3    80   62.8     9    287.5    14.4    999.0   0.00
 242   13:30  576.9    80   65.8     7    291.0    12.8    999.0   0.00

Return to Hayfield, Middle Canyon graphs page.


Western Regional Climate Center,wrcc@dri.edu